createdAt,value
2019-03-01T00:00:22.013Z,0.00
2019-03-01T00:01:22.037Z,0.00
2019-03-01T00:02:22.024Z,0.00
2019-03-01T00:03:21.981Z,0.00
2019-03-01T00:04:21.961Z,0.00
2019-03-01T00:05:21.952Z,0.00
2019-03-01T00:06:21.981Z,0.00
2019-03-01T00:07:21.935Z,0.00
2019-03-01T00:08:21.926Z,0.00
2019-03-01T00:09:21.910Z,0.00
2019-03-01T00:10:21.898Z,0.00
2019-03-01T00:11:21.887Z,0.00
2019-03-01T00:12:21.911Z,0.00
2019-03-01T00:13:21.864Z,0.00
2019-03-01T00:14:21.847Z,0.00
2019-03-01T00:15:21.838Z,0.00
2019-03-01T00:16:21.829Z,0.00
2019-03-01T00:17:21.829Z,0.00
2019-03-01T00:18:21.859Z,0.00
2019-03-01T00:19:21.806Z,0.00
2019-03-01T00:20:21.779Z,0.00
2019-03-01T00:21:21.768Z,0.00
2019-03-01T00:22:21.761Z,0.00
2019-03-01T00:23:21.754Z,0.00
2019-03-01T00:24:21.777Z,0.00
2019-03-01T00:25:21.728Z,0.00
2019-03-01T00:26:21.714Z,0.00
2019-03-01T00:27:21.702Z,0.00
2019-03-01T00:28:21.693Z,0.00
2019-03-01T00:29:21.681Z,0.00
2019-03-01T00:30:21.709Z,0.00
2019-03-01T00:31:21.659Z,0.00
2019-03-01T00:32:21.643Z,0.00
2019-03-01T00:33:21.632Z,0.00
2019-03-01T00:34:21.623Z,0.00
2019-03-01T00:35:21.626Z,0.00
2019-03-01T00:36:21.639Z,0.00
2019-03-01T00:37:21.592Z,0.00
2019-03-01T00:38:21.616Z,0.00
2019-03-01T00:39:21.566Z,0.00
2019-03-01T00:40:21.558Z,0.00
2019-03-01T00:41:21.547Z,0.00
2019-03-01T00:42:21.531Z,0.00
2019-03-01T00:43:21.526Z,0.00
2019-03-01T00:44:21.557Z,0.00
2019-03-01T00:45:21.507Z,0.00
2019-03-01T00:46:21.578Z,0.00
2019-03-01T00:47:21.477Z,0.00
2019-03-01T00:48:21.508Z,0.00
2019-03-01T00:49:21.458Z,0.00
2019-03-01T00:50:21.482Z,0.00
2019-03-01T00:51:21.429Z,0.00
2019-03-01T00:52:21.419Z,0.00
2019-03-01T00:53:21.409Z,0.00
2019-03-01T00:54:21.403Z,0.00
2019-03-01T00:55:21.430Z,0.00
2019-03-01T00:56:21.371Z,0.00
2019-03-01T00:57:21.375Z,0.00
2019-03-01T00:58:21.394Z,0.00
2019-03-01T00:59:21.394Z,0.00
2019-03-01T01:00:21.333Z,0.00
2019-03-01T01:01:21.316Z,0.00
2019-03-01T01:02:21.303Z,0.00
2019-03-01T01:03:21.292Z,0.00
2019-03-01T01:04:21.338Z,0.00
2019-03-01T01:05:21.276Z,0.00
2019-03-01T01:06:21.304Z,0.00
2019-03-01T01:07:21.260Z,0.00
2019-03-01T01:08:21.237Z,0.00
2019-03-01T01:09:21.223Z,0.00
2019-03-01T01:10:21.210Z,0.00
2019-03-01T01:11:21.205Z,0.00
2019-03-01T01:12:21.235Z,0.00
2019-03-01T01:13:21.217Z,0.00
2019-03-01T01:14:21.241Z,0.00
2019-03-01T01:15:21.158Z,0.00
2019-03-01T01:16:21.196Z,0.00
2019-03-01T01:17:22.142Z,0.00
2019-03-01T01:18:21.122Z,0.00
2019-03-01T01:19:21.124Z,0.00
2019-03-01T01:20:21.142Z,0.00
2019-03-01T01:21:21.095Z,0.00
2019-03-01T01:22:21.077Z,0.00
2019-03-01T01:23:21.068Z,0.00
2019-03-01T01:24:21.101Z,0.00
2019-03-01T01:25:21.094Z,0.00
2019-03-01T01:26:21.074Z,0.00
2019-03-01T01:27:21.022Z,0.00
2019-03-01T01:28:21.009Z,0.00
2019-03-01T01:29:21.011Z,0.00
2019-03-01T01:30:20.992Z,0.00
2019-03-01T01:31:21.060Z,0.00
2019-03-01T01:32:21.009Z,0.00
2019-03-01T01:33:20.952Z,0.00
2019-03-01T01:34:21.013Z,0.00
2019-03-01T01:35:21.345Z,0.00
2019-03-01T01:36:20.921Z,0.00
2019-03-01T01:37:20.908Z,0.00
2019-03-01T01:38:20.899Z,0.00
2019-03-01T01:39:20.905Z,0.00
2019-03-01T01:40:20.873Z,0.00
2019-03-01T01:41:20.911Z,0.00
2019-03-01T01:42:20.846Z,0.00
2019-03-01T01:43:20.886Z,0.00
2019-03-01T01:44:20.877Z,0.00
2019-03-01T01:45:20.816Z,0.00
2019-03-01T01:46:20.815Z,0.00
2019-03-01T01:47:20.791Z,0.00
2019-03-01T01:48:20.780Z,0.00
2019-03-01T01:49:20.825Z,0.00
2019-03-01T01:50:20.764Z,0.00
2019-03-01T01:51:20.789Z,0.00
2019-03-01T01:52:20.741Z,0.00
2019-03-01T01:53:20.722Z,0.00
2019-03-01T01:54:20.712Z,0.00
2019-03-01T01:55:20.704Z,0.00
2019-03-01T01:56:20.698Z,0.00
2019-03-01T01:57:20.727Z,0.00
2019-03-01T01:58:20.676Z,0.00
2019-03-01T01:59:20.665Z,0.00
2019-03-01T02:00:20.684Z,0.00
2019-03-01T02:01:20.674Z,0.00
2019-03-01T02:02:20.621Z,0.00
2019-03-01T02:03:20.610Z,0.00
2019-03-01T02:04:20.597Z,0.00
2019-03-01T02:05:20.611Z,0.00
2019-03-01T02:06:20.577Z,0.00
2019-03-01T02:07:20.605Z,0.00
2019-03-01T02:08:20.562Z,0.00
2019-03-01T02:09:20.577Z,0.00
2019-03-01T02:10:20.579Z,0.00
2019-03-01T02:11:20.518Z,0.00
2019-03-01T02:12:20.555Z,0.00
2019-03-01T02:13:20.503Z,0.00
2019-03-01T02:14:20.528Z,0.00
2019-03-01T02:15:20.475Z,0.00
2019-03-01T02:16:20.507Z,0.00
2019-03-01T02:17:20.507Z,0.00
2019-03-01T02:18:20.438Z,0.00
2019-03-01T02:19:20.431Z,0.00
2019-03-01T02:20:20.418Z,0.00
2019-03-01T02:21:20.408Z,0.00
2019-03-01T02:22:20.398Z,0.00
2019-03-01T02:23:20.432Z,0.00
2019-03-01T02:24:20.416Z,0.00
2019-03-01T02:25:20.367Z,0.00
2019-03-01T02:26:20.347Z,0.00
2019-03-01T02:27:20.338Z,0.00
2019-03-01T02:28:20.327Z,0.00
2019-03-01T02:29:20.354Z,0.00
2019-03-01T02:30:20.322Z,0.00
2019-03-01T02:31:20.292Z,0.00
2019-03-01T02:32:20.281Z,0.00
2019-03-01T02:33:20.293Z,0.00
2019-03-01T02:34:20.302Z,0.00
2019-03-01T02:35:20.247Z,0.00
2019-03-01T02:36:20.283Z,0.00
2019-03-01T02:37:20.228Z,0.00
2019-03-01T02:38:20.221Z,0.00
2019-03-01T02:39:20.218Z,0.00
2019-03-01T02:40:20.201Z,0.00
2019-03-01T02:41:20.226Z,0.00
2019-03-01T02:42:20.170Z,0.00
2019-03-01T02:43:20.153Z,0.00
2019-03-01T02:44:20.142Z,0.00
2019-03-01T02:45:20.133Z,0.00
2019-03-01T02:46:20.143Z,0.00
2019-03-01T02:47:20.167Z,0.00
2019-03-01T02:48:20.103Z,0.00
2019-03-01T02:49:20.142Z,0.00
2019-03-01T02:50:20.076Z,0.00
2019-03-01T02:51:20.068Z,0.00
2019-03-01T02:52:20.095Z,0.00
2019-03-01T02:53:20.047Z,0.00
2019-03-01T02:54:20.073Z,0.00
2019-03-01T02:55:20.018Z,0.00
2019-03-01T02:56:20.011Z,0.00
2019-03-01T02:57:20.061Z,0.00
2019-03-01T02:58:19.993Z,0.00
2019-03-01T02:59:19.984Z,0.00
2019-03-01T03:00:19.981Z,0.00
2019-03-01T03:01:19.952Z,0.00
2019-03-01T03:02:19.987Z,0.00
2019-03-01T03:03:19.936Z,0.00
2019-03-01T03:04:19.922Z,0.00
2019-03-01T03:05:19.919Z,0.00
2019-03-01T03:06:19.901Z,0.00
2019-03-01T03:07:19.937Z,0.00
2019-03-01T03:08:19.884Z,0.00
2019-03-01T03:09:19.864Z,0.00
2019-03-01T03:10:19.857Z,0.00
2019-03-01T03:11:19.838Z,0.00
2019-03-01T03:12:19.824Z,0.00
2019-03-01T03:13:19.871Z,0.00
2019-03-01T03:14:19.832Z,0.00
2019-03-01T03:15:19.790Z,0.00
2019-03-01T03:16:19.779Z,0.00
2019-03-01T03:17:19.823Z,0.00
2019-03-01T03:18:19.756Z,0.00
2019-03-01T03:19:19.753Z,0.00
2019-03-01T03:20:19.782Z,0.00
2019-03-01T03:21:19.747Z,0.00
2019-03-01T03:22:19.715Z,0.00
2019-03-01T03:23:19.706Z,0.00
2019-03-01T03:24:19.750Z,0.00
2019-03-01T03:25:19.695Z,0.00
2019-03-01T03:26:19.666Z,0.00
2019-03-01T03:27:19.657Z,0.00
2019-03-01T03:28:19.656Z,0.00
2019-03-01T03:29:19.631Z,0.00
2019-03-01T03:30:19.734Z,0.00
2019-03-01T03:31:19.621Z,0.00
2019-03-01T03:32:19.600Z,0.00
2019-03-01T03:33:19.646Z,0.00
2019-03-01T03:34:19.586Z,0.00
2019-03-01T03:35:19.630Z,0.00
2019-03-01T03:36:19.554Z,0.00
2019-03-01T03:37:19.607Z,0.00
2019-03-01T03:38:19.534Z,0.00
2019-03-01T03:39:19.524Z,0.00
2019-03-01T03:40:19.508Z,0.00
2019-03-01T03:41:19.512Z,0.00
2019-03-01T03:42:19.498Z,0.00
2019-03-01T03:43:19.521Z,0.00
2019-03-01T03:44:19.513Z,0.00
2019-03-01T03:45:19.462Z,0.00
2019-03-01T03:46:19.452Z,0.00
2019-03-01T03:47:19.432Z,0.00
2019-03-01T03:48:19.425Z,0.00
2019-03-01T03:49:19.457Z,0.00
2019-03-01T03:50:19.435Z,0.00
2019-03-01T03:51:19.385Z,0.00
2019-03-01T03:52:19.411Z,0.00
2019-03-01T03:53:19.359Z,0.00
2019-03-01T03:54:19.351Z,0.00
2019-03-01T03:55:19.347Z,0.00
2019-03-01T03:56:19.327Z,0.00
2019-03-01T03:57:19.357Z,0.00
2019-03-01T03:58:19.341Z,0.00
2019-03-01T03:59:19.300Z,0.00
2019-03-01T04:00:19.283Z,0.00
2019-03-01T04:01:19.269Z,0.00
2019-03-01T04:02:19.307Z,0.00
2019-03-01T04:03:19.254Z,0.00
2019-03-01T04:04:19.276Z,0.00
2019-03-01T04:05:19.236Z,0.00
2019-03-01T04:06:19.234Z,0.00
2019-03-01T04:07:19.204Z,0.00
2019-03-01T04:08:19.196Z,0.00
2019-03-01T04:09:19.178Z,0.00
2019-03-01T04:10:19.218Z,0.00
2019-03-01T04:11:19.169Z,0.00
2019-03-01T04:12:19.143Z,0.00
2019-03-01T04:13:19.175Z,0.00
2019-03-01T04:14:19.175Z,0.00
2019-03-01T04:15:19.157Z,0.00
2019-03-01T04:16:19.123Z,0.00
2019-03-01T04:17:19.132Z,0.00
2019-03-01T04:18:19.077Z,0.00
2019-03-01T04:19:19.067Z,0.00
2019-03-01T04:20:19.068Z,0.00
2019-03-01T04:21:19.045Z,0.00
2019-03-01T04:22:19.045Z,0.00
2019-03-01T04:23:19.191Z,0.00
2019-03-01T04:24:19.061Z,0.00
2019-03-01T04:25:19.005Z,0.00
2019-03-01T04:26:18.987Z,0.00
2019-03-01T04:27:18.982Z,0.00
2019-03-01T04:28:18.967Z,0.00
2019-03-01T04:29:18.991Z,0.00
2019-03-01T04:30:18.951Z,0.00
2019-03-01T04:31:18.936Z,0.00
2019-03-01T04:32:18.924Z,0.00
2019-03-01T04:33:18.922Z,0.00
2019-03-01T04:34:18.894Z,0.00
2019-03-01T04:35:18.933Z,0.00
2019-03-01T04:36:18.874Z,0.00
2019-03-01T04:37:18.863Z,0.00
2019-03-01T04:38:18.854Z,0.00
2019-03-01T04:39:18.850Z,0.00
2019-03-01T04:40:18.825Z,0.00
2019-03-01T04:41:18.870Z,0.00
2019-03-01T04:42:18.804Z,0.00
2019-03-01T04:43:18.795Z,0.00
2019-03-01T04:44:18.790Z,0.00
2019-03-01T04:45:18.769Z,0.00
2019-03-01T04:46:18.756Z,0.00
2019-03-01T04:47:18.795Z,0.00
2019-03-01T04:48:18.737Z,0.00
2019-03-01T04:49:18.725Z,0.00
2019-03-01T04:50:18.712Z,0.00
2019-03-01T04:51:18.703Z,0.00
2019-03-01T04:52:18.690Z,0.00
2019-03-01T04:53:18.722Z,0.00
2019-03-01T04:54:18.667Z,0.00
2019-03-01T04:55:18.654Z,0.00
2019-03-01T04:56:18.644Z,0.00
2019-03-01T04:57:18.673Z,0.00
2019-03-01T04:58:18.626Z,0.00
2019-03-01T04:59:18.647Z,0.00
2019-03-01T05:00:18.600Z,0.00
2019-03-01T05:01:18.593Z,0.00
2019-03-01T05:02:18.584Z,0.00
2019-03-01T05:03:18.567Z,0.00
2019-03-01T05:04:18.560Z,0.00
2019-03-01T05:05:18.587Z,0.00
2019-03-01T05:06:18.530Z,0.00
2019-03-01T05:07:18.566Z,0.00
2019-03-01T05:08:18.504Z,0.00
2019-03-01T05:09:18.515Z,0.00
2019-03-01T05:10:18.486Z,0.00
2019-03-01T05:11:18.474Z,0.00
2019-03-01T05:12:18.469Z,0.00
2019-03-01T05:13:18.493Z,0.00
2019-03-01T05:14:18.440Z,0.00
2019-03-01T05:15:18.436Z,0.00
2019-03-01T05:16:18.416Z,0.00
2019-03-01T05:17:18.452Z,0.00
2019-03-01T05:18:18.400Z,0.00
2019-03-01T05:19:18.383Z,0.00
2019-03-01T05:20:18.370Z,0.00
2019-03-01T05:21:18.369Z,0.00
2019-03-01T05:22:18.366Z,0.00
2019-03-01T05:23:18.379Z,0.00
2019-03-01T05:24:18.370Z,0.00
2019-03-01T05:25:18.339Z,0.00
2019-03-01T05:26:18.344Z,0.00
2019-03-01T05:27:18.292Z,0.00
2019-03-01T05:28:18.328Z,0.00
2019-03-01T05:29:18.316Z,0.00
2019-03-01T05:30:18.266Z,0.00
2019-03-01T05:31:18.251Z,0.00
2019-03-01T05:32:18.235Z,0.00
2019-03-01T05:33:18.226Z,0.00
2019-03-01T05:34:18.225Z,0.00
2019-03-01T05:35:18.246Z,0.00
2019-03-01T05:36:18.191Z,0.00
2019-03-01T05:37:18.185Z,0.00
2019-03-01T05:38:21.732Z,0.00
2019-03-01T05:39:18.156Z,0.00
2019-03-01T05:40:18.189Z,0.00
2019-03-01T05:41:18.133Z,0.00
2019-03-01T05:42:18.122Z,0.00
2019-03-01T05:43:18.110Z,0.00
2019-03-01T05:44:18.127Z,0.00
2019-03-01T05:45:18.092Z,0.00
2019-03-01T05:46:18.125Z,0.00
2019-03-01T05:47:18.066Z,0.00
2019-03-01T05:48:18.058Z,0.00
2019-03-01T05:49:18.046Z,0.00
2019-03-01T05:50:18.037Z,0.00
2019-03-01T05:51:18.066Z,0.00
2019-03-01T05:52:18.013Z,0.00
2019-03-01T05:53:17.996Z,0.00
2019-03-01T05:54:17.988Z,0.00
2019-03-01T05:55:17.977Z,0.00
2019-03-01T05:56:17.986Z,0.00
2019-03-01T05:57:17.992Z,0.00
2019-03-01T05:58:17.951Z,0.00
2019-03-01T05:59:17.935Z,0.00
2019-03-01T06:00:17.972Z,0.00
2019-03-01T06:01:17.956Z,0.00
2019-03-01T06:02:17.907Z,0.00
2019-03-01T06:03:17.913Z,0.00
2019-03-01T06:04:17.886Z,0.00
2019-03-01T06:05:17.880Z,0.00
2019-03-01T06:06:17.919Z,0.00
2019-03-01T06:07:17.904Z,0.00
2019-03-01T06:08:17.835Z,0.00
2019-03-01T06:09:17.825Z,0.00
2019-03-01T06:10:17.826Z,0.00
2019-03-01T06:11:17.806Z,0.00
2019-03-01T06:12:17.858Z,0.00
2019-03-01T06:13:17.789Z,0.00
2019-03-01T06:14:17.801Z,0.00
2019-03-01T06:15:17.800Z,0.00
2019-03-01T06:16:17.744Z,0.00
2019-03-01T06:17:17.743Z,0.00
2019-03-01T06:18:17.760Z,0.00
2019-03-01T06:19:17.733Z,0.00
2019-03-01T06:20:17.702Z,0.00
2019-03-01T06:21:17.746Z,0.00
2019-03-01T06:22:17.672Z,0.00
2019-03-01T06:23:17.681Z,0.00
2019-03-01T06:24:17.660Z,0.00
2019-03-01T06:25:17.636Z,0.00
2019-03-01T06:26:17.704Z,0.00
2019-03-01T06:27:17.619Z,5.62
2019-03-01T06:28:17.649Z,5.62
2019-03-01T06:29:17.644Z,5.62
2019-03-01T06:30:17.590Z,5.62
2019-03-01T06:31:17.575Z,5.62
2019-03-01T06:32:17.612Z,5.62
2019-03-01T06:33:17.553Z,5.62
2019-03-01T06:34:17.551Z,5.62
2019-03-01T06:35:17.535Z,5.62
2019-03-01T06:36:19.459Z,5.62
2019-03-01T06:37:17.553Z,11.25
2019-03-01T06:38:17.512Z,11.25
2019-03-01T06:39:17.487Z,11.25
2019-03-01T06:40:17.482Z,11.25
2019-03-01T06:41:17.501Z,11.25
2019-03-01T06:42:17.455Z,11.25
2019-03-01T06:43:17.461Z,11.25
2019-03-01T06:44:17.492Z,11.25
2019-03-01T06:45:17.475Z,11.25
2019-03-01T06:46:17.495Z,11.25
2019-03-01T06:47:17.397Z,11.25
2019-03-01T06:48:17.389Z,11.25
2019-03-01T06:49:17.377Z,11.25
2019-03-01T06:50:17.374Z,11.25
2019-03-01T06:51:17.370Z,11.25
2019-03-01T06:52:17.385Z,11.25
2019-03-01T06:53:17.329Z,11.25
2019-03-01T06:54:17.335Z,11.25
2019-03-01T06:55:17.329Z,11.25
2019-03-01T06:56:17.302Z,11.25
2019-03-01T06:57:17.339Z,11.25
2019-03-01T06:58:17.319Z,11.25
2019-03-01T06:59:17.273Z,11.25
2019-03-01T07:00:17.250Z,11.25
2019-03-01T07:01:17.276Z,11.25
2019-03-01T07:02:17.234Z,11.25
2019-03-01T07:03:17.246Z,11.25
2019-03-01T07:04:17.200Z,16.88
2019-03-01T07:05:17.192Z,16.88
2019-03-01T07:06:17.199Z,16.88
2019-03-01T07:07:17.217Z,16.88
2019-03-01T07:08:17.218Z,16.88
2019-03-01T07:09:17.242Z,16.88
2019-03-01T07:10:17.131Z,16.88
2019-03-01T07:11:17.135Z,16.88
2019-03-01T07:12:17.212Z,16.88
2019-03-01T07:13:17.099Z,16.88
2019-03-01T07:14:17.091Z,16.88
2019-03-01T07:15:17.090Z,22.50
2019-03-01T07:16:17.113Z,22.50
2019-03-01T07:17:17.056Z,16.88
2019-03-01T07:18:17.118Z,16.88
2019-03-01T07:19:17.094Z,16.88
2019-03-01T07:20:17.061Z,16.88
2019-03-01T07:21:17.011Z,11.25
2019-03-01T07:22:17.007Z,16.88
2019-03-01T07:23:17.041Z,16.88
2019-03-01T07:24:17.034Z,16.88
2019-03-01T07:25:16.998Z,16.88
2019-03-01T07:26:16.966Z,16.88
2019-03-01T07:27:16.957Z,16.88
2019-03-01T07:28:17.011Z,16.88
2019-03-01T07:29:16.926Z,16.88
2019-03-01T07:30:16.909Z,22.50
2019-03-01T07:31:16.907Z,22.50
2019-03-01T07:32:16.888Z,22.50
2019-03-01T07:33:16.911Z,22.50
2019-03-01T07:34:16.913Z,22.50
2019-03-01T07:35:16.881Z,22.50
2019-03-01T07:36:16.848Z,28.12
2019-03-01T07:37:16.860Z,28.12
2019-03-01T07:38:16.827Z,28.12
2019-03-01T07:39:16.821Z,33.75
2019-03-01T07:40:16.842Z,33.75
2019-03-01T07:41:16.786Z,33.75
2019-03-01T07:42:16.775Z,33.75
2019-03-01T07:43:16.763Z,28.12
2019-03-01T07:44:16.782Z,28.12
2019-03-01T07:45:16.801Z,28.12
2019-03-01T07:46:16.727Z,28.12
2019-03-01T07:47:16.716Z,28.12
2019-03-01T07:48:16.728Z,28.12
2019-03-01T07:49:16.724Z,33.75
2019-03-01T07:50:16.683Z,33.75
2019-03-01T07:51:16.721Z,39.38
2019-03-01T07:52:16.686Z,39.38
2019-03-01T07:53:16.660Z,45.00
2019-03-01T07:54:17.946Z,45.00
2019-03-01T07:55:16.681Z,50.62
2019-03-01T07:56:16.622Z,56.25
2019-03-01T07:57:16.632Z,56.25
2019-03-01T07:58:16.631Z,50.62
2019-03-01T07:59:16.619Z,45.00
2019-03-01T08:00:16.565Z,39.38
2019-03-01T08:01:16.595Z,33.75
2019-03-01T08:02:16.551Z,33.75
2019-03-01T08:03:16.545Z,33.75
2019-03-01T08:04:16.579Z,33.75
2019-03-01T08:05:16.811Z,33.75
2019-03-01T08:06:16.519Z,33.75
2019-03-01T08:07:16.501Z,33.75
2019-03-01T08:08:16.487Z,28.12
2019-03-01T08:09:16.518Z,22.50
2019-03-01T08:10:20.873Z,22.50
2019-03-01T08:11:17.456Z,22.50
2019-03-01T08:12:16.466Z,22.50
2019-03-01T08:13:17.733Z,22.50
2019-03-01T08:14:16.418Z,22.50
2019-03-01T08:15:16.459Z,22.50
2019-03-01T08:16:19.776Z,22.50
2019-03-01T08:17:16.391Z,22.50
2019-03-01T08:18:16.420Z,28.12
2019-03-01T08:19:22.615Z,28.12
2019-03-01T08:20:17.347Z,28.12
2019-03-01T08:21:16.366Z,33.75
2019-03-01T08:22:16.378Z,33.75
2019-03-01T08:23:16.371Z,33.75
2019-03-01T08:24:16.344Z,33.75
2019-03-01T08:25:22.636Z,33.75
2019-03-01T08:26:17.310Z,28.12
2019-03-01T08:27:16.274Z,28.12
2019-03-01T08:28:18.434Z,22.50
2019-03-01T08:29:17.296Z,22.50
2019-03-01T08:30:16.245Z,22.50
2019-03-01T08:31:17.546Z,22.50
2019-03-01T08:32:16.211Z,22.50
2019-03-01T08:33:16.252Z,16.88
2019-03-01T08:34:17.923Z,16.88
2019-03-01T08:35:16.177Z,16.88
2019-03-01T08:36:16.219Z,16.88
2019-03-01T08:37:17.632Z,16.88
2019-03-01T08:38:16.138Z,16.88
2019-03-01T08:39:16.137Z,16.88
2019-03-01T08:40:16.127Z,16.88
2019-03-01T08:41:16.153Z,16.88
2019-03-01T08:42:16.141Z,22.50
2019-03-01T08:43:16.093Z,22.50
2019-03-01T08:44:19.420Z,28.12
2019-03-01T08:45:17.086Z,28.12
2019-03-01T08:46:16.057Z,22.50
2019-03-01T08:47:20.315Z,16.88
2019-03-01T08:48:17.036Z,16.88
2019-03-01T08:49:16.063Z,16.88
2019-03-01T08:50:16.000Z,16.88
2019-03-01T08:51:15.995Z,16.88
2019-03-01T08:52:15.989Z,16.88
2019-03-01T08:53:16.137Z,16.88
2019-03-01T08:54:15.965Z,16.88
2019-03-01T08:55:15.997Z,16.88
2019-03-01T08:56:15.936Z,16.88
2019-03-01T08:57:15.934Z,16.88
2019-03-01T08:58:15.920Z,22.50
2019-03-01T08:59:17.436Z,22.50
2019-03-01T09:00:15.895Z,28.12
2019-03-01T09:01:15.957Z,28.12
2019-03-01T09:02:15.872Z,33.75
2019-03-01T09:03:21.877Z,33.75
2019-03-01T09:04:18.011Z,33.75
2019-03-01T09:05:15.885Z,33.75
2019-03-01T09:06:15.848Z,39.38
2019-03-01T09:07:15.870Z,39.38
2019-03-01T09:08:15.813Z,39.38
2019-03-01T09:09:17.650Z,33.75
2019-03-01T09:10:15.809Z,33.75
2019-03-01T09:11:15.770Z,33.75
2019-03-01T09:12:15.819Z,33.75
2019-03-01T09:13:15.772Z,33.75
2019-03-01T09:14:15.738Z,50.62
2019-03-01T09:15:15.723Z,67.50
2019-03-01T09:16:15.710Z,73.12
2019-03-01T09:17:15.720Z,73.12
2019-03-01T09:18:15.737Z,78.75
2019-03-01T09:19:15.682Z,78.75
2019-03-01T09:20:15.684Z,73.12
2019-03-01T09:21:15.663Z,78.75
2019-03-01T09:22:15.653Z,78.75
2019-03-01T09:23:22.768Z,84.38
2019-03-01T09:24:16.666Z,78.75
2019-03-01T09:25:15.609Z,78.75
2019-03-01T09:26:16.706Z,73.12
2019-03-01T09:27:15.606Z,73.12
2019-03-01T09:28:15.574Z,84.38
2019-03-01T09:29:18.519Z,90.00
2019-03-01T09:30:15.573Z,90.00
2019-03-01T09:31:15.540Z,84.38
2019-03-01T09:32:15.584Z,84.38
2019-03-01T09:33:17.261Z,95.62
2019-03-01T09:34:16.520Z,90.00
2019-03-01T09:35:15.534Z,84.38
2019-03-01T09:36:17.809Z,84.38
2019-03-01T09:37:16.556Z,90.00
2019-03-01T09:38:15.486Z,95.62
2019-03-01T09:39:18.174Z,90.00
2019-03-01T09:40:15.457Z,90.00
2019-03-01T09:41:15.488Z,90.00
2019-03-01T09:42:16.239Z,90.00
2019-03-01T09:43:15.409Z,84.38
2019-03-01T09:44:15.400Z,84.38
2019-03-01T09:45:15.384Z,84.38
2019-03-01T09:46:15.393Z,84.38
2019-03-01T09:47:15.401Z,84.38
2019-03-01T09:48:15.342Z,84.38
2019-03-01T09:49:15.396Z,84.38
2019-03-01T09:50:15.333Z,95.62
2019-03-01T09:51:16.012Z,101.25
2019-03-01T09:52:15.325Z,112.50
2019-03-01T09:53:15.306Z,112.50
2019-03-01T09:54:15.280Z,101.25
2019-03-01T09:55:15.302Z,95.62
2019-03-01T09:56:15.262Z,90.00
2019-03-01T09:57:15.664Z,84.38
2019-03-01T09:58:15.296Z,84.38
2019-03-01T09:59:15.234Z,73.12
2019-03-01T10:00:15.232Z,73.12
2019-03-01T10:01:15.201Z,73.12
2019-03-01T10:02:15.232Z,67.50
2019-03-01T10:03:15.188Z,61.88
2019-03-01T10:04:15.249Z,67.50
2019-03-01T10:05:15.155Z,56.25
2019-03-01T10:06:15.144Z,61.88
2019-03-01T10:07:15.137Z,61.88
2019-03-01T10:08:15.128Z,67.50
2019-03-01T10:09:15.123Z,67.50
2019-03-01T10:10:15.137Z,61.88
2019-03-01T10:11:15.142Z,61.88
2019-03-01T10:12:15.076Z,56.25
2019-03-01T10:13:15.074Z,50.62
2019-03-01T10:14:15.079Z,45.00
2019-03-01T10:15:15.098Z,39.38
2019-03-01T10:16:15.093Z,39.38
2019-03-01T10:17:15.067Z,39.38
2019-03-01T10:18:15.002Z,45.00
2019-03-01T10:19:15.021Z,39.38
2019-03-01T10:20:14.996Z,33.75
2019-03-01T10:21:14.980Z,28.12
2019-03-01T10:22:15.000Z,28.12
2019-03-01T10:23:14.959Z,22.50
2019-03-01T10:24:14.938Z,22.50
2019-03-01T10:25:14.974Z,28.12
2019-03-01T10:26:14.913Z,28.12
2019-03-01T10:27:14.913Z,28.12
2019-03-01T10:28:14.899Z,22.50
2019-03-01T10:29:14.892Z,22.50
2019-03-01T10:30:15.177Z,22.50
2019-03-01T10:31:14.889Z,22.50
2019-03-01T10:32:14.856Z,22.50
2019-03-01T10:33:14.864Z,22.50
2019-03-01T10:34:14.841Z,22.50
2019-03-01T10:35:14.824Z,28.12
2019-03-01T10:36:14.849Z,28.12
2019-03-01T10:37:14.791Z,28.12
2019-03-01T10:38:14.803Z,33.75
2019-03-01T10:39:14.777Z,39.38
2019-03-01T10:40:14.790Z,56.25
2019-03-01T10:41:14.771Z,67.50
2019-03-01T10:42:14.777Z,61.88
2019-03-01T10:43:14.734Z,56.25
2019-03-01T10:44:14.724Z,67.50
2019-03-01T10:45:14.785Z,73.12
2019-03-01T10:46:14.707Z,73.12
2019-03-01T10:47:14.689Z,78.75
2019-03-01T10:48:14.691Z,78.75
2019-03-01T10:49:14.707Z,78.75
2019-03-01T10:50:14.697Z,67.50
2019-03-01T10:51:14.741Z,67.50
2019-03-01T10:52:14.640Z,67.50
2019-03-01T10:53:14.739Z,56.25
2019-03-01T10:54:14.634Z,50.62
2019-03-01T10:55:14.595Z,45.00
2019-03-01T10:56:14.629Z,39.38
2019-03-01T10:57:14.566Z,33.75
2019-03-01T10:58:14.583Z,28.12
2019-03-01T10:59:14.555Z,28.12
2019-03-01T11:00:14.588Z,22.50
2019-03-01T11:01:14.529Z,28.12
2019-03-01T11:02:14.526Z,28.12
2019-03-01T11:03:14.503Z,28.12
2019-03-01T11:04:14.488Z,28.12
2019-03-01T11:05:14.478Z,33.75
2019-03-01T11:06:14.518Z,33.75
2019-03-01T11:07:14.465Z,45.00
2019-03-01T11:08:14.443Z,45.00
2019-03-01T11:09:14.431Z,45.00
2019-03-01T11:10:14.438Z,39.38
2019-03-01T11:11:14.444Z,39.38
2019-03-01T11:12:14.436Z,33.75
2019-03-01T11:13:14.398Z,33.75
2019-03-01T11:14:14.385Z,33.75
2019-03-01T11:15:14.372Z,28.12
2019-03-01T11:16:14.422Z,28.12
2019-03-01T11:17:14.344Z,28.12
2019-03-01T11:18:14.437Z,33.75
2019-03-01T11:19:14.319Z,39.38
2019-03-01T11:20:14.318Z,39.38
2019-03-01T11:21:14.305Z,45.00
2019-03-01T11:22:14.284Z,39.38
2019-03-01T11:23:14.272Z,39.38
2019-03-01T11:24:14.335Z,39.38
2019-03-01T11:25:14.259Z,39.38
2019-03-01T11:26:14.273Z,39.38
2019-03-01T11:27:14.318Z,39.38
2019-03-01T11:28:14.217Z,45.00
2019-03-01T11:29:14.220Z,50.62
2019-03-01T11:30:14.196Z,50.62
2019-03-01T11:31:14.199Z,50.62
2019-03-01T11:32:14.178Z,50.62
2019-03-01T11:33:14.231Z,45.00
2019-03-01T11:34:14.150Z,39.38
2019-03-01T11:35:14.219Z,33.75
2019-03-01T11:36:14.148Z,33.75
2019-03-01T11:37:14.145Z,28.12
2019-03-01T11:38:14.171Z,33.75
2019-03-01T11:39:14.090Z,33.75
2019-03-01T11:40:14.098Z,33.75
2019-03-01T11:41:14.071Z,33.75
2019-03-01T11:42:14.073Z,33.75
2019-03-01T11:43:14.157Z,33.75
2019-03-01T11:44:14.044Z,33.75
2019-03-01T11:45:14.043Z,28.12
2019-03-01T11:46:14.107Z,28.12
2019-03-01T11:47:14.023Z,28.12
2019-03-01T11:48:14.005Z,28.12
2019-03-01T11:49:13.982Z,28.12
2019-03-01T11:50:13.986Z,28.12
2019-03-01T11:51:13.962Z,28.12
2019-03-01T11:52:14.044Z,22.50
2019-03-01T11:53:13.935Z,22.50
2019-03-01T11:54:13.924Z,22.50
2019-03-01T11:55:13.925Z,22.50
2019-03-01T11:56:13.910Z,22.50
2019-03-01T11:57:13.959Z,16.88
2019-03-01T11:58:13.890Z,16.88
2019-03-01T11:59:13.863Z,22.50
2019-03-01T12:00:13.956Z,22.50
2019-03-01T12:01:17.119Z,22.50
2019-03-01T12:02:13.846Z,22.50
2019-03-01T12:03:15.462Z,22.50
2019-03-01T12:04:13.807Z,22.50
2019-03-01T12:05:13.799Z,28.12
2019-03-01T12:06:13.868Z,28.12
2019-03-01T12:07:13.785Z,28.12
2019-03-01T12:08:13.770Z,28.12
2019-03-01T12:09:13.776Z,33.75
2019-03-01T12:10:13.758Z,33.75
2019-03-01T12:11:13.774Z,33.75
2019-03-01T12:12:13.783Z,33.75
2019-03-01T12:13:13.712Z,33.75
2019-03-01T12:14:13.708Z,33.75
2019-03-01T12:15:13.688Z,33.75
2019-03-01T12:16:13.707Z,33.75
2019-03-01T12:17:13.663Z,28.12
2019-03-01T12:18:13.732Z,28.12
2019-03-01T12:19:13.719Z,28.12
2019-03-01T12:20:13.649Z,28.12
2019-03-01T12:21:13.631Z,28.12
2019-03-01T12:22:17.057Z,28.12
2019-03-01T12:23:13.729Z,28.12
2019-03-01T12:24:13.633Z,28.12
2019-03-01T12:25:13.577Z,33.75
2019-03-01T12:26:13.582Z,33.75
2019-03-01T12:27:13.556Z,33.75
2019-03-01T12:28:13.669Z,33.75
2019-03-01T12:29:13.535Z,33.75
2019-03-01T12:30:13.532Z,33.75
2019-03-01T12:31:13.529Z,33.75
2019-03-01T12:32:13.502Z,33.75
2019-03-01T12:33:13.573Z,33.75
2019-03-01T12:34:13.512Z,33.75
2019-03-01T12:35:13.530Z,33.75
2019-03-01T12:36:13.468Z,39.38
2019-03-01T12:37:13.491Z,39.38
2019-03-01T12:38:13.446Z,39.38
2019-03-01T12:39:13.518Z,39.38
2019-03-01T12:40:13.412Z,39.38
2019-03-01T12:41:13.440Z,39.38
2019-03-01T12:42:13.400Z,45.00
2019-03-01T12:43:13.372Z,45.00
2019-03-01T12:44:13.362Z,45.00
2019-03-01T12:45:13.434Z,39.38
2019-03-01T12:46:13.419Z,39.38
2019-03-01T12:47:13.335Z,39.38
2019-03-01T12:48:13.397Z,39.38
2019-03-01T12:49:13.300Z,39.38
2019-03-01T12:50:13.416Z,39.38
2019-03-01T12:51:13.285Z,39.38
2019-03-01T12:52:13.304Z,39.38
2019-03-01T12:53:13.271Z,45.00
2019-03-01T12:54:13.250Z,39.38
2019-03-01T12:55:13.235Z,39.38
2019-03-01T12:56:13.299Z,39.38
2019-03-01T12:57:13.230Z,39.38
2019-03-01T12:58:19.377Z,33.75
2019-03-01T12:59:14.190Z,33.75
2019-03-01T13:00:13.187Z,33.75
2019-03-01T13:01:13.166Z,33.75
2019-03-01T13:02:13.226Z,33.75
2019-03-01T13:03:13.144Z,39.38
2019-03-01T13:04:15.634Z,39.38
2019-03-01T13:05:14.224Z,39.38